createdAt,value
2022-08-20T00:02:14.676Z,100523.28
2022-08-20T00:04:42.642Z,100521.25
2022-08-20T00:07:10.413Z,100524.88
2022-08-20T00:09:38.591Z,100516.78
2022-08-20T00:12:06.556Z,100520.88
2022-08-20T00:14:35.317Z,100524.03
2022-08-20T00:17:05.034Z,100522.44
2022-08-20T00:19:32.782Z,100524.03
2022-08-20T00:22:00.948Z,100521.63
2022-08-20T00:24:29.054Z,100520.00
2022-08-20T00:26:56.750Z,100520.81
2022-08-20T00:29:24.466Z,100522.03
2022-08-20T00:31:52.715Z,100530.47
2022-08-20T00:34:20.812Z,100538.16
2022-08-20T00:36:48.930Z,100543.41
2022-08-20T00:39:16.989Z,100535.75
2022-08-20T00:41:45.811Z,100539.34
2022-08-20T00:44:19.897Z,100537.75
2022-08-20T00:46:49.229Z,100542.97
2022-08-20T00:49:29.837Z,100548.63
2022-08-20T00:52:06.126Z,100544.22
2022-08-20T00:54:55.701Z,100551.03
2022-08-20T00:58:01.748Z,100544.16
2022-08-20T01:00:44.691Z,100543.78
2022-08-20T01:03:14.949Z,100549.00
2022-08-20T01:05:47.945Z,100551.44
2022-08-20T01:08:18.888Z,100560.31
2022-08-20T01:10:48.993Z,100557.88
2022-08-20T01:13:23.572Z,100568.38
2022-08-20T01:15:53.197Z,100562.72
2022-08-20T01:18:27.059Z,100560.31
2022-08-20T01:21:01.416Z,100552.25
2022-08-20T01:23:38.129Z,100555.50
2022-08-20T01:26:21.140Z,100555.06
2022-08-20T01:29:01.949Z,100562.72
2022-08-20T01:31:32.635Z,100567.56
2022-08-20T01:34:02.002Z,100565.09
2022-08-20T01:36:34.556Z,100571.47
2022-08-20T01:39:04.836Z,100568.25
2022-08-20T01:41:53.435Z,100571.88
2022-08-20T01:44:21.885Z,100563.28
2022-08-20T01:46:57.556Z,100548.91
2022-08-20T01:49:30.458Z,100541.66
2022-08-20T01:52:07.927Z,100538.84
2022-08-20T01:54:36.087Z,100537.22
2022-08-20T01:57:13.782Z,100543.66
2022-08-20T01:59:42.540Z,100540.44
2022-08-20T02:02:12.668Z,100548.06
2022-08-20T02:04:41.607Z,100543.22
2022-08-20T02:07:17.002Z,100553.66
2022-08-20T02:09:46.095Z,100560.44
2022-08-20T02:12:17.420Z,100556.84
2022-08-20T02:14:53.458Z,100565.59
2022-08-20T02:17:23.549Z,100561.59
2022-08-20T02:20:00.938Z,68092.72
2022-08-20T02:22:49.816Z,68092.72
2022-08-20T02:25:23.112Z,68092.72
2022-08-20T02:27:52.753Z,68092.72
2022-08-20T02:30:27.743Z,68092.72
2022-08-20T02:32:57.863Z,68092.72
2022-08-20T02:35:50.860Z,68092.72
2022-08-20T02:38:18.655Z,68092.72
2022-08-20T02:40:46.769Z,68092.72
2022-08-20T02:43:15.432Z,68092.72
2022-08-20T02:45:44.070Z,68092.72
2022-08-20T02:48:20.685Z,68092.72
2022-08-20T02:50:53.097Z,68092.72
2022-08-20T02:53:22.239Z,68092.72
2022-08-20T02:55:50.661Z,68092.72
2022-08-20T02:58:19.892Z,68092.72
2022-08-20T03:00:48.594Z,68092.72
2022-08-20T03:03:22.302Z,68092.72
2022-08-20T03:05:56.190Z,68092.72
2022-08-20T03:08:29.359Z,68092.72
2022-08-20T03:10:57.634Z,68092.72
2022-08-20T03:13:25.827Z,68092.72
2022-08-20T03:15:58.764Z,68092.72
2022-08-20T03:18:32.985Z,68092.72
2022-08-20T03:21:01.367Z,68092.72
2022-08-20T03:23:29.676Z,68092.72
2022-08-20T03:25:58.986Z,68092.72
2022-08-20T03:28:27.606Z,68092.72
2022-08-20T03:30:56.472Z,68092.72
2022-08-20T03:33:24.266Z,68092.72
2022-08-20T03:35:52.075Z,68092.72
2022-08-20T03:38:32.350Z,68092.72
2022-08-20T03:41:26.614Z,68092.72
2022-08-20T03:43:54.813Z,68092.72
2022-08-20T03:46:23.947Z,68092.72
2022-08-20T03:48:56.367Z,68092.72
2022-08-20T03:51:29.912Z,68092.72
2022-08-20T03:53:58.723Z,68092.72
2022-08-20T03:56:27.356Z,68092.72
2022-08-20T03:58:55.448Z,68092.72
2022-08-20T04:01:45.457Z,68092.72
2022-08-20T04:04:15.137Z,68092.72
2022-08-20T04:06:43.558Z,68092.72
2022-08-20T04:09:12.199Z,68092.72
2022-08-20T04:11:41.756Z,68092.72
2022-08-20T04:14:11.265Z,68092.72
2022-08-20T04:16:40.415Z,68092.72
2022-08-20T04:19:09.160Z,68092.72
2022-08-20T04:21:37.219Z,68092.72
2022-08-20T04:24:06.101Z,68092.72
2022-08-20T04:26:47.885Z,68092.72
2022-08-20T04:29:15.592Z,68092.72
2022-08-20T04:31:43.349Z,68092.72
2022-08-20T04:34:11.160Z,68092.72
2022-08-20T04:36:40.458Z,68092.72
2022-08-20T04:39:08.127Z,68092.72
2022-08-20T04:41:35.881Z,68092.72
2022-08-20T04:44:29.269Z,68092.72
2022-08-20T04:46:57.872Z,68092.72
2022-08-20T04:49:26.319Z,68092.72
2022-08-20T04:51:54.796Z,68092.72
2022-08-20T04:54:22.877Z,68092.72
2022-08-20T04:56:50.932Z,68092.72
2022-08-20T04:59:19.845Z,68092.72
2022-08-20T05:01:48.397Z,68092.72
2022-08-20T05:04:16.070Z,68092.72
2022-08-20T05:06:52.247Z,68092.72
2022-08-20T05:09:47.320Z,68092.72
2022-08-20T05:12:21.217Z,68092.72
2022-08-20T05:14:54.326Z,68092.72
2022-08-20T05:17:32.834Z,68092.72
2022-08-20T05:20:00.570Z,68092.72
2022-08-20T05:22:31.114Z,68092.72
2022-08-20T05:24:59.667Z,68092.72
2022-08-20T05:27:28.911Z,68092.72
2022-08-20T05:30:08.658Z,68092.72
2022-08-20T05:32:44.478Z,68092.72
2022-08-20T05:35:12.862Z,68092.72
2022-08-20T05:37:44.911Z,68092.72
2022-08-20T05:40:14.404Z,68092.72
2022-08-20T05:42:43.287Z,68092.72
2022-08-20T05:45:12.169Z,68092.72
2022-08-20T05:47:42.887Z,68092.72
2022-08-20T05:50:20.666Z,68092.72
2022-08-20T05:52:51.552Z,68092.72
2022-08-20T05:55:19.574Z,68092.72
2022-08-20T05:57:47.229Z,68092.72
2022-08-20T06:00:15.630Z,68092.72
2022-08-20T06:03:02.310Z,68092.72
2022-08-20T06:05:30.379Z,68092.72
2022-08-20T06:08:07.748Z,68092.72
2022-08-20T06:10:36.758Z,68092.72
2022-08-20T06:13:10.045Z,68092.72
2022-08-20T06:15:42.206Z,68092.72
2022-08-20T06:18:16.602Z,68092.72
2022-08-20T06:20:57.017Z,68092.72
2022-08-20T06:23:25.503Z,68092.72
2022-08-20T06:25:53.764Z,68092.72
2022-08-20T06:28:21.895Z,68092.72
2022-08-20T06:30:49.923Z,68092.72
2022-08-20T06:33:19.945Z,68092.72
2022-08-20T06:35:48.927Z,68092.72
2022-08-20T06:38:16.663Z,68092.72
2022-08-20T06:40:44.634Z,68092.72
2022-08-20T06:43:13.211Z,68092.72
2022-08-20T06:45:41.247Z,68092.72
2022-08-20T06:48:15.063Z,68092.72
2022-08-20T06:50:47.913Z,68092.72
2022-08-20T06:53:19.285Z,68092.72
2022-08-20T06:55:53.186Z,68092.72
2022-08-20T06:58:36.645Z,68092.72
2022-08-20T07:01:11.633Z,68092.72
2022-08-20T07:03:42.232Z,68092.72
2022-08-20T07:06:25.672Z,68092.72
2022-08-20T07:08:55.146Z,68092.72
2022-08-20T07:11:27.832Z,68092.72
2022-08-20T07:13:59.304Z,68092.72
2022-08-20T07:16:27.287Z,68092.72
2022-08-20T07:18:55.728Z,68092.72
2022-08-20T07:21:24.401Z,68092.72
2022-08-20T07:23:53.168Z,68092.72
2022-08-20T07:26:21.360Z,68092.72
2022-08-20T07:28:49.449Z,68092.72
2022-08-20T07:31:36.089Z,68092.72
2022-08-20T07:34:08.423Z,68092.72
2022-08-20T07:36:36.097Z,68092.72
2022-08-20T07:39:06.588Z,68092.72
2022-08-20T07:41:35.679Z,68092.72
2022-08-20T07:44:04.656Z,68092.72
2022-08-20T07:46:33.326Z,68092.72
2022-08-20T07:49:01.535Z,68092.72
2022-08-20T07:51:29.584Z,68092.72
2022-08-20T07:53:58.983Z,68092.72
2022-08-20T07:56:30.829Z,68092.72
2022-08-20T07:58:59.869Z,68092.72
2022-08-20T08:01:30.888Z,68092.72
2022-08-20T08:04:00.049Z,68092.72
2022-08-20T08:06:44.821Z,68092.72
2022-08-20T08:09:14.788Z,68092.72
2022-08-20T08:11:50.160Z,68092.72
2022-08-20T08:14:29.111Z,68092.72
2022-08-20T08:17:04.346Z,68092.72
2022-08-20T08:19:48.922Z,68092.72
2022-08-20T08:22:19.196Z,68092.72
2022-08-20T08:24:57.256Z,68092.72
2022-08-20T08:27:32.510Z,68092.72
2022-08-20T08:30:08.913Z,68092.72
2022-08-20T08:33:20.968Z,68092.72
2022-08-20T08:35:51.108Z,68092.72
2022-08-20T08:38:45.518Z,68092.72
2022-08-20T08:41:35.961Z,68092.72
2022-08-20T08:44:34.378Z,100561.59
2022-08-20T08:47:19.459Z,100731.91
2022-08-20T08:50:43.787Z,100741.19
2022-08-20T08:53:22.791Z,100745.22
2022-08-20T08:56:16.158Z,100751.69
2022-08-20T08:59:23.053Z,100748.44
2022-08-20T09:01:57.257Z,100753.28
2022-08-20T09:04:38.386Z,100752.47
2022-08-20T09:07:15.779Z,100760.50
2022-08-20T09:09:46.720Z,100754.84
2022-08-20T09:12:42.403Z,100755.31
2022-08-20T09:15:13.572Z,100760.16
2022-08-20T09:18:08.162Z,100761.34
2022-08-20T09:20:36.404Z,100761.38
2022-08-20T09:23:07.750Z,100760.16
2022-08-20T09:25:41.676Z,100768.63
2022-08-20T09:28:37.275Z,100764.59
2022-08-20T09:31:05.338Z,100762.19
2022-08-20T09:33:34.886Z,100757.38
2022-08-20T09:36:02.812Z,100760.22
2022-08-20T09:38:31.060Z,100740.81
2022-08-20T09:41:25.010Z,100752.91
2022-08-20T09:43:53.258Z,100756.53
2022-08-20T09:46:27.278Z,100768.59
2022-08-20T09:48:55.509Z,100762.94
2022-08-20T09:51:23.433Z,100754.91
2022-08-20T09:53:54.798Z,100768.63
2022-08-20T09:56:25.207Z,100754.94
2022-08-20T09:59:02.807Z,100759.00
2022-08-20T10:01:38.440Z,100756.88
2022-08-20T10:04:10.522Z,100753.25
2022-08-20T10:06:39.785Z,100750.53
2022-08-20T10:09:07.900Z,100743.03
2022-08-20T10:11:59.388Z,100753.56
2022-08-20T10:14:28.268Z,100751.28
2022-08-20T10:17:00.179Z,100753.22
2022-08-20T10:19:30.139Z,100754.50
2022-08-20T10:21:58.394Z,100751.03
2022-08-20T10:24:27.133Z,100752.97
2022-08-20T10:26:59.530Z,100745.75
2022-08-20T10:29:30.547Z,100749.41
2022-08-20T10:32:14.150Z,100746.47
2022-08-20T10:34:45.835Z,100743.63
2022-08-20T10:37:21.173Z,100741.94
2022-08-20T10:39:53.270Z,100745.00
2022-08-20T10:42:24.542Z,100743.50
2022-08-20T10:44:52.796Z,100736.63
2022-08-20T10:47:28.538Z,100741.56
2022-08-20T10:49:59.106Z,100738.88
2022-08-20T10:52:30.496Z,100733.78
2022-08-20T10:55:09.417Z,100735.97
2022-08-20T10:57:41.474Z,100735.59
2022-08-20T11:00:25.965Z,100748.59
2022-08-20T11:02:53.761Z,100752.72
2022-08-20T11:05:22.993Z,100747.38
2022-08-20T11:07:56.013Z,100745.19
2022-08-20T11:10:26.573Z,100750.97
2022-08-20T11:13:19.218Z,100748.41
2022-08-20T11:16:17.524Z,100743.00
2022-08-20T11:19:11.085Z,100757.25
2022-08-20T11:21:52.374Z,100756.72
2022-08-20T11:24:24.361Z,100744.66
2022-08-20T11:26:54.217Z,100750.13
2022-08-20T11:29:22.612Z,100739.53
2022-08-20T11:32:15.284Z,100741.84
2022-08-20T11:34:44.602Z,100745.91
2022-08-20T11:37:13.711Z,100749.63
2022-08-20T11:39:46.622Z,100746.06
2022-08-20T11:42:14.936Z,100741.97
2022-08-20T11:44:43.180Z,100741.94
2022-08-20T11:47:23.599Z,100731.16
2022-08-20T11:49:57.934Z,100725.16
2022-08-20T11:52:27.128Z,100735.59
2022-08-20T11:54:58.649Z,100734.19
2022-08-20T11:57:30.232Z,100727.25
2022-08-20T12:00:06.236Z,100737.41
2022-08-20T12:02:36.630Z,100737.19
2022-08-20T12:05:05.334Z,100743.34
2022-08-20T12:07:33.345Z,100741.53
2022-08-20T12:10:01.418Z,100737.50
2022-08-20T12:12:29.512Z,100726.84
2022-08-20T12:14:57.684Z,100728.94
2022-08-20T12:17:27.874Z,100739.59
2022-08-20T12:19:57.721Z,100734.53
2022-08-20T12:22:29.862Z,100728.72
2022-08-20T12:24:58.319Z,100736.44
2022-08-20T12:27:29.661Z,100732.34
2022-08-20T12:30:00.641Z,100726.22
2022-08-20T12:32:30.635Z,100735.34
2022-08-20T12:34:58.864Z,100737.56
2022-08-20T12:37:29.505Z,100738.06
2022-08-20T12:39:59.548Z,100733.78
2022-08-20T12:42:30.621Z,68092.72
2022-08-20T12:44:59.589Z,68092.72
2022-08-20T12:47:31.574Z,100733.78
2022-08-20T12:50:05.086Z,100750.34
2022-08-20T12:52:33.708Z,100740.47
2022-08-20T12:55:08.558Z,100735.19
2022-08-20T12:57:48.010Z,100739.44
2022-08-20T13:00:22.434Z,100750.38
2022-08-20T13:02:57.373Z,100754.44
2022-08-20T13:05:31.889Z,100751.25
2022-08-20T13:08:02.327Z,100745.00
2022-08-20T13:10:33.336Z,100739.56
2022-08-20T13:13:04.297Z,100737.16
2022-08-20T13:15:33.270Z,100728.44
2022-08-20T13:18:06.066Z,100739.50
2022-08-20T13:20:34.934Z,100738.53
2022-08-20T13:23:28.107Z,100732.34
2022-08-20T13:25:55.913Z,100738.63
2022-08-20T13:28:24.690Z,68092.72
2022-08-20T13:31:02.041Z,100738.63
2022-08-20T13:33:30.226Z,100721.09
2022-08-20T13:35:57.977Z,100730.88
2022-08-20T13:38:25.737Z,68092.72
2022-08-20T13:40:58.484Z,100732.06
2022-08-20T13:43:27.360Z,100732.06
2022-08-20T13:45:55.553Z,100733.09
2022-08-20T13:48:23.559Z,100734.13
2022-08-20T13:50:51.651Z,100734.75
2022-08-20T13:53:22.116Z,100733.16
2022-08-20T13:55:51.271Z,100733.97
2022-08-20T13:58:19.047Z,100740.59
2022-08-20T14:00:50.860Z,100738.09
2022-08-20T14:03:29.983Z,100747.34
2022-08-20T14:06:01.254Z,100742.59
2022-08-20T14:08:30.231Z,100747.59
2022-08-20T14:10:59.308Z,100746.72
2022-08-20T14:13:27.509Z,100745.78
2022-08-20T14:16:25.475Z,100743.69
2022-08-20T14:18:56.664Z,100756.22
2022-08-20T14:21:24.430Z,100748.69
2022-08-20T14:23:52.169Z,100746.63
2022-08-20T14:26:20.053Z,100754.72
2022-08-20T14:28:47.817Z,100751.44
2022-08-20T14:31:15.961Z,100754.88
2022-08-20T14:33:44.801Z,100744.63
2022-08-20T14:36:13.036Z,100747.25
2022-08-20T14:38:44.992Z,100745.22
2022-08-20T14:41:12.743Z,100738.94
2022-08-20T14:43:40.603Z,100740.91
2022-08-20T14:46:08.392Z,100737.19
2022-08-20T14:48:36.586Z,100730.75
2022-08-20T14:51:04.494Z,100721.00
2022-08-20T14:53:32.287Z,100721.41
2022-08-20T14:56:00.742Z,100721.16
2022-08-20T14:58:29.449Z,100723.66
2022-08-20T15:00:57.302Z,100728.69
2022-08-20T15:03:30.385Z,100732.94
2022-08-20T15:05:58.855Z,100731.88
2022-08-20T15:08:28.850Z,100740.72
2022-08-20T15:10:57.107Z,68092.72
2022-08-20T15:13:24.997Z,68092.72
2022-08-20T15:15:53.195Z,68092.72
2022-08-20T15:18:24.970Z,68092.72
2022-08-20T15:20:52.735Z,68092.72
2022-08-20T15:23:28.187Z,68092.72
2022-08-20T15:25:55.971Z,68092.72
2022-08-20T15:28:23.868Z,68092.72
2022-08-20T15:30:51.746Z,68092.72
2022-08-20T15:33:19.590Z,68092.72
2022-08-20T15:35:47.398Z,100739.41
2022-08-20T15:38:15.201Z,68092.72
2022-08-20T15:40:53.276Z,68092.72
2022-08-20T15:43:21.072Z,68092.72
2022-08-20T15:45:49.120Z,68092.72
2022-08-20T15:48:18.978Z,100739.41
2022-08-20T15:51:02.869Z,100751.16
2022-08-20T15:53:37.222Z,100746.63
2022-08-20T15:56:35.266Z,100751.63
2022-08-20T15:59:43.033Z,100764.84
2022-08-20T16:02:36.533Z,100756.72
2022-08-20T16:05:43.209Z,100757.97
2022-08-20T16:08:15.888Z,100755.03
2022-08-20T16:11:11.353Z,100763.38
2022-08-20T16:13:41.546Z,100763.50
2022-08-20T16:16:14.503Z,100755.53
2022-08-20T16:18:42.663Z,100763.13
2022-08-20T16:21:13.857Z,100757.22
2022-08-20T16:23:42.361Z,100762.81
2022-08-20T16:26:43.564Z,100760.41
2022-08-20T16:30:00.765Z,100760.63
2022-08-20T16:33:00.857Z,100760.63
2022-08-20T16:35:37.285Z,100759.28
2022-08-20T16:38:33.174Z,100752.44
2022-08-20T16:41:22.826Z,100758.63
2022-08-20T16:44:01.112Z,100759.78
2022-08-20T16:46:37.381Z,100758.84
2022-08-20T16:49:13.770Z,100754.94
2022-08-20T16:51:51.748Z,100762.84
2022-08-20T16:54:29.541Z,100759.88
2022-08-20T16:57:05.978Z,100761.03
2022-08-20T16:59:34.167Z,100763.44
2022-08-20T17:02:15.064Z,100767.34
2022-08-20T17:04:59.392Z,100756.97
2022-08-20T17:07:43.291Z,100760.50
2022-08-20T17:10:32.895Z,100762.22
2022-08-20T17:13:11.091Z,100756.50
2022-08-20T17:15:39.726Z,100768.03
2022-08-20T17:18:38.465Z,100758.56
2022-08-20T17:21:16.818Z,100762.50
2022-08-20T17:23:56.013Z,100764.84
2022-08-20T17:26:30.086Z,100762.78
2022-08-20T17:29:11.225Z,100766.66
2022-08-20T17:31:43.005Z,100761.94
2022-08-20T17:34:17.294Z,100769.13
2022-08-20T17:36:58.587Z,100771.66
2022-08-20T17:39:28.589Z,100764.50
2022-08-20T17:42:11.034Z,100770.28
2022-08-20T17:44:43.828Z,100761.53
2022-08-20T17:47:21.418Z,100771.88
2022-08-20T17:50:02.878Z,100774.88
2022-08-20T17:52:39.526Z,100772.56
2022-08-20T17:55:08.059Z,100780.47
2022-08-20T17:57:38.454Z,100783.13
2022-08-20T18:00:16.162Z,100784.31
2022-08-20T18:02:44.355Z,100785.28
2022-08-20T18:05:20.037Z,100781.28
2022-08-20T18:08:30.641Z,100781.09
2022-08-20T18:11:18.278Z,100786.13
2022-08-20T18:14:00.444Z,100783.13
2022-08-20T18:16:53.986Z,100789.41
2022-08-20T18:20:17.689Z,100800.50
2022-08-20T18:23:13.048Z,100802.22
2022-08-20T18:25:45.715Z,100791.78
2022-08-20T18:28:47.208Z,100800.28
2022-08-20T18:31:32.712Z,100800.28
2022-08-20T18:34:20.199Z,100800.28
2022-08-20T18:36:56.872Z,100795.25
2022-08-20T18:39:34.637Z,100799.72
2022-08-20T18:42:10.825Z,100801.75
2022-08-20T18:44:39.054Z,100806.22
2022-08-20T18:47:28.170Z,100812.28
2022-08-20T18:50:24.155Z,100812.28
2022-08-20T18:53:24.413Z,100824.44
2022-08-20T18:56:04.335Z,100821.59
2022-08-20T18:59:00.601Z,100815.53
2022-08-20T19:01:28.469Z,100820.31
2022-08-20T19:03:58.014Z,100811.03
2022-08-20T19:06:29.173Z,100815.88
2022-08-20T19:09:16.745Z,100823.81
2022-08-20T19:12:22.603Z,100819.16
2022-08-20T19:15:03.966Z,100828.34
2022-08-20T19:17:52.257Z,100831.81
2022-08-20T19:20:28.200Z,100827.97
2022-08-20T19:23:09.553Z,100832.81
2022-08-20T19:25:48.535Z,100827.44
2022-08-20T19:28:31.360Z,100833.34
2022-08-20T19:31:33.105Z,100833.84
2022-08-20T19:34:22.236Z,100831.69
2022-08-20T19:37:27.410Z,100839.97
2022-08-20T19:39:50.583Z,100840.34
2022-08-20T19:42:29.786Z,100845.53
2022-08-20T19:45:05.617Z,100845.16
2022-08-20T19:47:37.849Z,100840.91
2022-08-20T19:50:39.040Z,100844.97
2022-08-20T19:53:36.452Z,100842.34
2022-08-20T19:56:09.871Z,100835.13
2022-08-20T19:58:37.908Z,100840.59
2022-08-20T20:01:18.437Z,100835.34
2022-08-20T20:04:00.906Z,100831.63
2022-08-20T20:06:30.097Z,100832.47
2022-08-20T20:09:05.153Z,100835.88
2022-08-20T20:11:36.358Z,100833.31
2022-08-20T20:14:08.303Z,100827.56
2022-08-20T20:16:38.084Z,100829.97
2022-08-20T20:19:28.430Z,100833.00
2022-08-20T20:22:27.670Z,100830.19
2022-08-20T20:25:20.648Z,100828.13
2022-08-20T20:28:05.104Z,100826.09
2022-08-20T20:30:34.461Z,100833.25
2022-08-20T20:33:19.740Z,100837.88
2022-08-20T20:35:47.925Z,100838.59
2022-08-20T20:38:28.526Z,100832.22
2022-08-20T20:41:01.022Z,100836.34
2022-08-20T20:43:41.918Z,100826.44
2022-08-20T20:46:22.596Z,100828.13
2022-08-20T20:48:54.196Z,100825.84
2022-08-20T20:51:27.827Z,100815.69
2022-08-20T20:54:01.809Z,100814.25
2022-08-20T20:56:33.832Z,100813.56
2022-08-20T20:59:06.527Z,100811.88
2022-08-20T21:01:49.024Z,100819.41
2022-08-20T21:04:24.035Z,100826.03
2022-08-20T21:06:54.163Z,100830.03
2022-08-20T21:09:22.851Z,100826.59
2022-08-20T21:11:51.028Z,100825.72
2022-08-20T21:14:18.943Z,100822.78
2022-08-20T21:16:47.012Z,100829.81
2022-08-20T21:19:15.381Z,100825.28
2022-08-20T21:21:45.518Z,100825.88
2022-08-20T21:24:13.595Z,100832.00
2022-08-20T21:26:41.762Z,100823.22
2022-08-20T21:29:10.972Z,100834.03
2022-08-20T21:31:43.914Z,100831.03
2022-08-20T21:34:12.752Z,100830.91
2022-08-20T21:36:41.247Z,100834.78
2022-08-20T21:39:09.525Z,100836.59
2022-08-20T21:41:37.565Z,100828.47
2022-08-20T21:44:12.459Z,100831.00
2022-08-20T21:46:40.712Z,100826.13
2022-08-20T21:49:08.860Z,100830.03
2022-08-20T21:51:36.550Z,100837.00
2022-08-20T21:54:04.310Z,100832.09
2022-08-20T21:56:33.722Z,100835.19
2022-08-20T21:59:01.611Z,100831.50
2022-08-20T22:01:29.681Z,100836.91
2022-08-20T22:03:57.564Z,100829.34
2022-08-20T22:06:25.324Z,100831.34
2022-08-20T22:08:53.487Z,100823.19
2022-08-20T22:11:21.559Z,100822.66
2022-08-20T22:13:49.638Z,100824.91
2022-08-20T22:16:24.208Z,100832.88
2022-08-20T22:18:52.280Z,100826.78
2022-08-20T22:21:25.645Z,100824.91
2022-08-20T22:23:53.853Z,100824.91
2022-08-20T22:26:22.415Z,100830.44
2022-08-20T22:28:55.477Z,100823.91
2022-08-20T22:31:27.335Z,100831.28
2022-08-20T22:33:56.417Z,100827.56
2022-08-20T22:36:25.337Z,100828.78
2022-08-20T22:38:54.795Z,100831.22
2022-08-20T22:41:23.133Z,100838.38
2022-08-20T22:43:56.585Z,100832.22
2022-08-20T22:46:27.411Z,100828.59
2022-08-20T22:48:55.891Z,100822.56
2022-08-20T22:51:30.731Z,100836.91
2022-08-20T22:53:59.572Z,100825.97
2022-08-20T22:56:29.863Z,100833.06
2022-08-20T22:58:59.111Z,100829.38
2022-08-20T23:01:28.097Z,100827.28
2022-08-20T23:04:14.724Z,100840.97
2022-08-20T23:06:42.428Z,100841.84
2022-08-20T23:09:13.058Z,100841.97
2022-08-20T23:11:41.575Z,100841.22
2022-08-20T23:14:09.607Z,100838.06
2022-08-20T23:16:39.111Z,100839.25
2022-08-20T23:19:07.305Z,100836.25
2022-08-20T23:21:37.149Z,100838.59
2022-08-20T23:24:08.353Z,100831.09
2022-08-20T23:26:44.724Z,100835.88
2022-08-20T23:29:25.804Z,100833.44
2022-08-20T23:31:55.952Z,100831.81
2022-08-20T23:34:24.910Z,100834.16
2022-08-20T23:36:54.162Z,100828.09
2022-08-20T23:39:22.987Z,100828.34
2022-08-20T23:41:51.044Z,100820.53
2022-08-20T23:44:26.310Z,100819.72
2022-08-20T23:46:56.572Z,100824.38
2022-08-20T23:49:25.488Z,100819.94
2022-08-20T23:51:53.277Z,100820.19
2022-08-20T23:54:21.391Z,100817.63
2022-08-20T23:56:49.422Z,100816.03
2022-08-20T23:59:17.180Z,100814.38
